createdAt,value
2017-11-11T00:02:10.331Z,3.40
2017-11-11T00:04:36.490Z,3.40
2017-11-11T00:07:02.716Z,3.40
2017-11-11T00:09:28.977Z,3.40
2017-11-11T00:11:55.966Z,3.50
2017-11-11T00:14:22.183Z,3.50
2017-11-11T00:16:48.341Z,3.40
2017-11-11T00:19:14.486Z,3.40
2017-11-11T00:21:40.677Z,3.40
2017-11-11T00:24:06.930Z,3.50
2017-11-11T00:26:33.189Z,3.50
2017-11-11T00:29:00.165Z,3.60
2017-11-11T00:31:26.353Z,3.50
2017-11-11T00:33:53.309Z,3.50
2017-11-11T00:36:20.389Z,3.50
2017-11-11T00:38:46.589Z,3.50
2017-11-11T00:41:12.789Z,3.50
2017-11-11T00:43:39.719Z,3.50
2017-11-11T00:46:05.913Z,3.50
2017-11-11T00:48:32.127Z,3.50
2017-11-11T00:50:58.306Z,3.60
2017-11-11T00:53:24.562Z,3.70
2017-11-11T00:55:50.848Z,3.70
2017-11-11T00:58:17.007Z,3.60
2017-11-11T01:00:43.193Z,3.70
2017-11-11T01:03:09.399Z,3.80
2017-11-11T01:05:35.548Z,3.80
2017-11-11T01:08:01.729Z,3.80
2017-11-11T01:10:27.939Z,3.80
2017-11-11T01:12:54.929Z,3.70
2017-11-11T01:15:21.185Z,3.70
2017-11-11T01:17:47.446Z,3.70
2017-11-11T01:20:13.763Z,3.60
2017-11-11T01:22:40.624Z,3.60
2017-11-11T01:25:06.813Z,3.60
2017-11-11T01:27:33.024Z,3.60
2017-11-11T01:29:59.820Z,3.50
2017-11-11T01:32:26.113Z,3.50
2017-11-11T01:34:53.075Z,3.40
2017-11-11T01:37:19.283Z,3.40
2017-11-11T01:39:45.424Z,3.50
2017-11-11T01:42:11.602Z,3.50
2017-11-11T01:44:37.853Z,3.50
2017-11-11T01:47:04.059Z,3.50
2017-11-11T01:49:31.145Z,3.50
2017-11-11T01:51:57.435Z,3.50
2017-11-11T01:54:23.656Z,3.40
2017-11-11T01:56:49.883Z,3.40
2017-11-11T01:59:16.151Z,3.40
2017-11-11T02:01:43.089Z,3.50
2017-11-11T02:04:10.020Z,3.50
2017-11-11T02:06:36.333Z,3.50
2017-11-11T02:09:02.509Z,3.60
2017-11-11T02:11:28.712Z,3.50
2017-11-11T02:13:54.940Z,3.50
2017-11-11T02:16:21.822Z,3.70
2017-11-11T02:18:48.041Z,3.60
2017-11-11T02:21:14.173Z,3.60
2017-11-11T02:23:41.119Z,3.60
2017-11-11T02:26:07.308Z,3.60
2017-11-11T02:28:34.254Z,3.70
2017-11-11T02:31:01.262Z,3.80
2017-11-11T02:33:27.417Z,3.80
2017-11-11T02:35:54.365Z,3.80
2017-11-11T02:38:21.248Z,3.80
2017-11-11T02:40:47.611Z,3.80
2017-11-11T02:43:13.836Z,3.80
2017-11-11T02:45:40.095Z,3.90
2017-11-11T02:48:07.009Z,3.90
2017-11-11T02:50:33.226Z,3.90
2017-11-11T02:52:59.470Z,3.90
2017-11-11T02:55:26.404Z,3.90
2017-11-11T02:57:52.592Z,3.90
2017-11-11T03:00:18.813Z,3.80
2017-11-11T03:02:45.036Z,3.80
2017-11-11T03:05:11.216Z,3.80
2017-11-11T03:07:37.386Z,3.80
2017-11-11T03:10:03.681Z,3.80
2017-11-11T03:12:30.583Z,3.80
2017-11-11T03:14:56.822Z,3.80
2017-11-11T03:17:23.192Z,3.80
2017-11-11T03:19:50.179Z,3.90
2017-11-11T03:22:16.473Z,3.90
2017-11-11T03:24:42.742Z,3.90
2017-11-11T03:27:08.894Z,3.80
2017-11-11T03:29:35.167Z,3.80
2017-11-11T03:32:01.385Z,3.90
2017-11-11T03:34:27.572Z,3.90
2017-11-11T03:36:53.765Z,3.90
2017-11-11T03:39:19.976Z,4.00
2017-11-11T03:41:46.148Z,4.00
2017-11-11T03:44:12.361Z,4.00
2017-11-11T03:46:38.794Z,3.90
2017-11-11T03:49:04.912Z,3.90
2017-11-11T03:51:31.197Z,4.00
2017-11-11T03:53:57.363Z,3.90
2017-11-11T03:56:23.472Z,3.90
2017-11-11T03:58:49.698Z,3.90
2017-11-11T04:01:15.873Z,3.90
2017-11-11T04:03:42.950Z,3.90
2017-11-11T04:06:09.163Z,3.90
2017-11-11T04:08:36.019Z,3.90
2017-11-11T04:11:02.153Z,3.90
2017-11-11T04:13:28.334Z,3.90
2017-11-11T04:15:54.559Z,4.00
2017-11-11T04:18:20.719Z,4.00
2017-11-11T04:20:46.888Z,4.00
2017-11-11T04:23:13.133Z,4.00
2017-11-11T04:25:39.398Z,4.00
2017-11-11T04:28:05.499Z,4.00
2017-11-11T04:30:32.502Z,4.00
2017-11-11T04:32:58.632Z,4.00
2017-11-11T04:35:24.877Z,4.00
2017-11-11T04:37:51.114Z,4.00
2017-11-11T04:40:18.084Z,3.90
2017-11-11T04:42:44.295Z,3.90
2017-11-11T04:45:11.313Z,3.90
2017-11-11T04:47:37.481Z,3.90
2017-11-11T04:50:03.800Z,3.90
2017-11-11T04:52:30.749Z,3.90
2017-11-11T04:54:56.981Z,3.90
2017-11-11T04:57:23.193Z,3.90
2017-11-11T04:59:50.157Z,3.90
2017-11-11T05:02:16.395Z,3.90
2017-11-11T05:04:42.740Z,3.90
2017-11-11T05:07:08.879Z,4.00
2017-11-11T05:09:35.531Z,4.00
2017-11-11T05:12:01.719Z,4.00
2017-11-11T05:14:28.026Z,4.00
2017-11-11T05:16:54.746Z,4.00
2017-11-11T05:19:21.697Z,4.10
2017-11-11T05:21:48.596Z,4.10
2017-11-11T05:24:14.810Z,4.10
2017-11-11T05:26:41.433Z,4.10
2017-11-11T05:29:07.622Z,4.00
2017-11-11T05:31:34.496Z,4.00
2017-11-11T05:34:00.703Z,4.00
2017-11-11T05:36:27.733Z,4.00
2017-11-11T05:38:54.645Z,4.00
2017-11-11T05:41:20.858Z,4.00
2017-11-11T05:43:47.124Z,4.00
2017-11-11T05:46:14.062Z,3.90
2017-11-11T05:48:40.238Z,3.90
2017-11-11T05:51:06.367Z,3.90
2017-11-11T05:53:32.637Z,3.90
2017-11-11T05:55:59.706Z,3.90
2017-11-11T05:58:26.605Z,3.90
2017-11-11T06:00:53.619Z,3.90
2017-11-11T06:03:19.720Z,3.90
2017-11-11T06:05:45.933Z,3.90
2017-11-11T06:08:12.903Z,3.80
2017-11-11T06:10:39.186Z,3.80
2017-11-11T06:13:05.414Z,3.80
2017-11-11T06:15:31.625Z,3.80
2017-11-11T06:17:57.868Z,3.80
2017-11-11T06:20:24.180Z,3.80
2017-11-11T06:22:50.414Z,3.80
2017-11-11T06:25:16.620Z,3.80
2017-11-11T06:27:42.833Z,3.80
2017-11-11T06:30:09.001Z,3.80
2017-11-11T06:32:35.246Z,3.80
2017-11-11T06:35:02.150Z,3.70
2017-11-11T06:37:28.384Z,3.70
2017-11-11T06:39:54.574Z,3.70
2017-11-11T06:42:20.947Z,3.70
2017-11-11T06:44:47.140Z,3.80
2017-11-11T06:47:13.360Z,3.80
2017-11-11T06:49:39.603Z,3.80
2017-11-11T06:52:05.893Z,3.90
2017-11-11T06:54:32.243Z,3.90
2017-11-11T06:56:58.498Z,3.90
2017-11-11T06:59:24.619Z,3.80
2017-11-11T07:01:50.906Z,3.90
2017-11-11T07:04:17.095Z,3.90
2017-11-11T07:06:43.422Z,3.90
2017-11-11T07:09:09.574Z,3.90
2017-11-11T07:11:36.578Z,3.90
2017-11-11T07:14:02.772Z,3.90
2017-11-11T07:16:29.051Z,3.90
2017-11-11T07:18:55.365Z,3.90
2017-11-11T07:21:21.567Z,3.90
2017-11-11T07:23:47.740Z,3.90
2017-11-11T07:26:14.676Z,3.90
2017-11-11T07:28:40.983Z,3.90
2017-11-11T07:31:07.122Z,3.90
2017-11-11T07:33:33.572Z,4.00
2017-11-11T07:36:00.534Z,4.00
2017-11-11T07:38:26.809Z,4.00
2017-11-11T07:40:53.067Z,4.10
2017-11-11T07:43:19.573Z,4.10
2017-11-11T07:45:45.824Z,4.10
2017-11-11T07:48:12.119Z,4.20
2017-11-11T07:50:38.359Z,4.20
2017-11-11T07:53:04.690Z,4.20
2017-11-11T07:55:30.892Z,4.20
2017-11-11T07:57:57.134Z,4.30
2017-11-11T08:00:23.393Z,4.30
2017-11-11T08:02:49.660Z,4.30
2017-11-11T08:05:15.961Z,4.40
2017-11-11T08:07:42.895Z,4.40
2017-11-11T08:10:09.897Z,4.40
2017-11-11T08:12:36.068Z,4.40
2017-11-11T08:15:03.003Z,4.40
2017-11-11T08:17:29.998Z,4.50
2017-11-11T08:19:56.172Z,4.40
2017-11-11T08:22:22.349Z,4.50
2017-11-11T08:24:48.534Z,4.50
2017-11-11T08:27:15.542Z,4.70
2017-11-11T08:29:41.866Z,4.60
2017-11-11T08:32:08.208Z,4.60
2017-11-11T08:34:34.508Z,4.70
2017-11-11T08:37:00.713Z,4.70
2017-11-11T08:39:27.064Z,4.80
2017-11-11T08:41:53.370Z,4.80
2017-11-11T08:44:19.682Z,4.80
2017-11-11T08:46:46.753Z,4.80
2017-11-11T08:49:13.016Z,4.80
2017-11-11T08:51:39.826Z,4.90
2017-11-11T08:54:06.058Z,4.90
2017-11-11T08:56:32.502Z,4.90
2017-11-11T08:58:59.110Z,4.80
2017-11-11T09:01:25.381Z,4.80
2017-11-11T09:03:51.561Z,4.80
2017-11-11T09:06:17.856Z,4.80
2017-11-11T09:08:44.161Z,4.80
2017-11-11T09:11:10.385Z,4.70
2017-11-11T09:13:36.581Z,4.70
2017-11-11T09:16:02.958Z,4.70
2017-11-11T09:18:29.172Z,4.70
2017-11-11T09:20:55.459Z,4.70
2017-11-11T09:23:21.719Z,4.70
2017-11-11T09:25:47.959Z,4.80
2017-11-11T09:28:14.104Z,4.90
2017-11-11T09:30:40.483Z,5.00
2017-11-11T09:33:06.778Z,5.10
2017-11-11T09:35:33.790Z,5.20
2017-11-11T09:38:00.106Z,5.20
2017-11-11T09:40:26.341Z,5.20
2017-11-11T09:42:52.572Z,5.30
2017-11-11T09:45:18.853Z,5.30
2017-11-11T09:47:44.968Z,5.40
2017-11-11T09:50:11.964Z,5.70
2017-11-11T09:52:38.234Z,5.60
2017-11-11T09:55:05.232Z,5.90
2017-11-11T09:57:31.454Z,5.90
2017-11-11T09:59:57.695Z,6.00
2017-11-11T10:02:23.995Z,6.00
2017-11-11T10:04:50.188Z,6.00
2017-11-11T10:07:16.415Z,6.00
2017-11-11T10:09:43.511Z,6.00
2017-11-11T10:12:09.700Z,6.10
2017-11-11T10:14:35.994Z,6.10
2017-11-11T10:17:02.246Z,6.20
2017-11-11T10:19:29.753Z,6.30
2017-11-11T10:21:55.968Z,6.30
2017-11-11T10:24:22.375Z,6.30
2017-11-11T10:26:48.661Z,6.40
2017-11-11T10:29:14.928Z,6.40
2017-11-11T10:31:41.234Z,6.30
2017-11-11T10:34:08.127Z,6.30
2017-11-11T10:36:34.431Z,6.20
2017-11-11T10:39:00.574Z,6.20
2017-11-11T10:41:26.740Z,6.10
2017-11-11T10:43:52.986Z,6.00
2017-11-11T10:46:19.910Z,5.90
2017-11-11T10:48:46.076Z,5.90
2017-11-11T10:51:12.257Z,5.80
2017-11-11T10:53:38.509Z,5.70
2017-11-11T10:56:05.421Z,5.60
2017-11-11T10:58:31.555Z,5.60
2017-11-11T11:00:57.753Z,5.60
2017-11-11T11:03:23.874Z,5.60
2017-11-11T11:05:50.067Z,5.50
2017-11-11T11:08:16.361Z,5.50
2017-11-11T11:10:43.457Z,5.50
2017-11-11T11:13:09.756Z,5.50
2017-11-11T11:15:36.897Z,5.60
2017-11-11T11:18:03.879Z,5.60
2017-11-11T11:20:30.113Z,5.60
2017-11-11T11:22:56.334Z,5.70
2017-11-11T11:25:22.601Z,5.80
2017-11-11T11:27:49.022Z,5.90
2017-11-11T11:30:15.276Z,6.00
2017-11-11T11:32:42.197Z,6.10
2017-11-11T11:35:08.517Z,6.10
2017-11-11T11:37:34.647Z,6.20
2017-11-11T11:40:00.778Z,6.30
2017-11-11T11:42:27.014Z,6.30
2017-11-11T11:44:53.177Z,6.20
2017-11-11T11:47:19.365Z,6.20
2017-11-11T11:49:45.589Z,6.20
2017-11-11T11:52:12.599Z,6.20
2017-11-11T11:54:38.831Z,6.20
2017-11-11T11:57:05.018Z,6.20
2017-11-11T11:59:31.300Z,6.20
2017-11-11T12:01:57.481Z,6.20
2017-11-11T12:04:24.019Z,6.20
2017-11-11T12:06:50.386Z,6.20
2017-11-11T12:09:16.619Z,6.20
2017-11-11T12:11:42.863Z,6.30
2017-11-11T12:14:09.010Z,6.40
2017-11-11T12:16:35.958Z,6.50
2017-11-11T12:19:02.948Z,6.60
2017-11-11T12:21:29.170Z,6.60
2017-11-11T12:23:55.448Z,6.50
2017-11-11T12:26:22.277Z,6.50
2017-11-11T12:28:48.525Z,6.50
2017-11-11T12:31:15.491Z,6.60
2017-11-11T12:33:41.962Z,6.60
2017-11-11T12:36:08.961Z,6.60
2017-11-11T12:38:35.222Z,6.60
2017-11-11T12:41:01.399Z,6.60
2017-11-11T12:43:28.299Z,6.60
2017-11-11T12:45:54.560Z,6.60
2017-11-11T12:48:21.537Z,6.60
2017-11-11T12:50:47.804Z,6.60
2017-11-11T12:53:14.085Z,6.60
2017-11-11T12:55:40.383Z,6.50
2017-11-11T12:58:07.313Z,6.30
2017-11-11T13:00:33.533Z,6.30
2017-11-11T13:02:59.706Z,6.20
2017-11-11T13:05:25.916Z,6.20
2017-11-11T13:07:52.765Z,6.20
2017-11-11T13:10:19.745Z,6.20
2017-11-11T13:12:45.977Z,6.20
2017-11-11T13:15:13.035Z,6.20
2017-11-11T13:17:39.439Z,6.20
2017-11-11T13:20:05.558Z,6.20
2017-11-11T13:22:31.739Z,6.20
2017-11-11T13:24:57.921Z,6.10
2017-11-11T13:27:24.073Z,6.10
2017-11-11T13:29:50.341Z,6.00
2017-11-11T13:32:17.305Z,5.90
2017-11-11T13:34:43.532Z,5.90
2017-11-11T13:37:09.861Z,5.90
2017-11-11T13:39:36.071Z,5.90
2017-11-11T13:42:02.927Z,5.60
2017-11-11T13:44:29.080Z,5.60
2017-11-11T13:46:55.350Z,5.50
2017-11-11T13:49:22.268Z,5.40
2017-11-11T13:51:48.550Z,5.40
2017-11-11T13:54:14.681Z,5.50
2017-11-11T13:56:41.113Z,5.50
2017-11-11T13:59:07.327Z,5.50
2017-11-11T14:01:33.490Z,5.40
2017-11-11T14:03:59.674Z,5.40
2017-11-11T14:06:25.755Z,5.30
2017-11-11T14:08:52.161Z,5.40
2017-11-11T14:11:18.214Z,5.40
2017-11-11T14:13:44.454Z,5.40
2017-11-11T14:16:10.657Z,5.30
2017-11-11T14:18:36.775Z,5.30
2017-11-11T14:21:02.985Z,5.30
2017-11-11T14:23:29.130Z,5.20
2017-11-11T14:25:55.355Z,5.20
2017-11-11T14:28:22.287Z,5.10
2017-11-11T14:30:48.449Z,5.10
2017-11-11T14:33:15.418Z,5.00
2017-11-11T14:35:41.533Z,5.00
2017-11-11T14:38:08.339Z,5.00
2017-11-11T14:40:34.586Z,5.00
2017-11-11T14:43:00.813Z,5.00
2017-11-11T14:45:27.705Z,4.90
2017-11-11T14:47:53.888Z,4.90
2017-11-11T14:50:20.813Z,4.90
2017-11-11T14:52:47.142Z,4.90
2017-11-11T14:55:13.496Z,4.90
2017-11-11T14:57:40.422Z,4.80
2017-11-11T15:00:06.711Z,4.80
2017-11-11T15:02:32.953Z,4.90
2017-11-11T15:04:59.159Z,4.90
2017-11-11T15:07:25.370Z,4.90
2017-11-11T15:09:51.551Z,4.90
2017-11-11T15:12:17.747Z,4.80
2017-11-11T15:14:44.061Z,4.70
2017-11-11T15:17:10.272Z,4.70
2017-11-11T15:19:36.482Z,4.70
2017-11-11T15:22:03.465Z,4.70
2017-11-11T15:24:29.624Z,4.70
2017-11-11T15:26:55.831Z,4.70
2017-11-11T15:29:22.158Z,4.70
2017-11-11T15:31:48.460Z,4.60
2017-11-11T15:34:14.604Z,4.60
2017-11-11T15:36:41.119Z,4.60
2017-11-11T15:39:07.307Z,4.50
2017-11-11T15:41:34.393Z,4.50
2017-11-11T15:44:00.602Z,4.50
2017-11-11T15:46:26.723Z,4.50
2017-11-11T15:48:52.921Z,4.50
2017-11-11T15:51:19.233Z,4.50
2017-11-11T15:53:45.493Z,4.50
2017-11-11T15:56:12.507Z,4.40
2017-11-11T15:58:38.720Z,4.40
2017-11-11T16:01:05.724Z,4.50
2017-11-11T16:03:32.167Z,4.50
2017-11-11T16:05:58.530Z,4.40
2017-11-11T16:08:24.690Z,4.40
2017-11-11T16:10:51.755Z,4.40
2017-11-11T16:13:18.546Z,4.50
2017-11-11T16:15:44.893Z,4.40
2017-11-11T16:18:11.000Z,4.40
2017-11-11T16:20:37.224Z,4.50
2017-11-11T16:23:03.405Z,4.50
2017-11-11T16:25:29.598Z,4.50
2017-11-11T16:27:55.739Z,4.50
2017-11-11T16:30:22.679Z,4.40
2017-11-11T16:32:49.634Z,4.50
2017-11-11T16:35:16.489Z,4.50
2017-11-11T16:37:42.653Z,4.50
2017-11-11T16:40:08.937Z,4.40
2017-11-11T16:42:35.102Z,4.40
2017-11-11T16:45:02.235Z,4.40
2017-11-11T16:47:28.671Z,4.40
2017-11-11T16:49:54.945Z,4.40
2017-11-11T16:52:21.254Z,4.40
2017-11-11T16:54:47.489Z,4.30
2017-11-11T16:57:13.653Z,4.30
2017-11-11T16:59:39.948Z,4.20
2017-11-11T17:02:06.157Z,4.20
2017-11-11T17:04:32.283Z,4.20
2017-11-11T17:06:58.440Z,4.20
2017-11-11T17:09:25.425Z,4.20
2017-11-11T17:11:51.690Z,4.10
2017-11-11T17:14:17.792Z,4.20
2017-11-11T17:16:44.081Z,4.20
2017-11-11T17:19:10.972Z,4.10
2017-11-11T17:21:37.263Z,4.10
2017-11-11T17:24:03.401Z,4.10
2017-11-11T17:26:29.623Z,4.10
2017-11-11T17:28:55.873Z,4.20
2017-11-11T17:31:21.993Z,4.10
2017-11-11T17:33:48.161Z,4.20
2017-11-11T17:36:15.076Z,4.20
2017-11-11T17:38:41.287Z,4.20
2017-11-11T17:41:07.484Z,4.20
2017-11-11T17:43:33.693Z,4.20
2017-11-11T17:46:00.581Z,4.20
2017-11-11T17:48:26.897Z,4.20
2017-11-11T17:50:53.023Z,4.20
2017-11-11T17:53:19.284Z,4.30
2017-11-11T17:55:46.477Z,4.20
2017-11-11T17:58:12.666Z,4.20
2017-11-11T18:00:38.847Z,4.20
2017-11-11T18:03:04.973Z,4.20
2017-11-11T18:05:31.807Z,4.10
2017-11-11T18:07:58.051Z,4.10
2017-11-11T18:10:24.141Z,4.10
2017-11-11T18:12:50.308Z,4.10
2017-11-11T18:15:17.310Z,4.20
2017-11-11T18:17:43.503Z,4.20
2017-11-11T18:20:09.728Z,4.20
2017-11-11T18:22:35.976Z,4.20
2017-11-11T18:25:02.996Z,4.20
2017-11-11T18:27:29.284Z,4.20
2017-11-11T18:29:55.438Z,4.20
2017-11-11T18:32:21.650Z,4.20
2017-11-11T18:34:47.874Z,4.20
2017-11-11T18:37:13.990Z,4.20
2017-11-11T18:39:40.166Z,4.30
2017-11-11T18:42:06.399Z,4.20
2017-11-11T18:44:33.380Z,4.30
2017-11-11T18:46:59.651Z,4.30
2017-11-11T18:49:25.949Z,4.30
2017-11-11T18:51:52.901Z,4.30
2017-11-11T18:54:19.213Z,4.20
2017-11-11T18:56:45.389Z,4.30
2017-11-11T18:59:11.612Z,4.30
2017-11-11T19:01:37.775Z,4.30
2017-11-11T19:04:04.091Z,4.30
2017-11-11T19:06:34.010Z,4.30
2017-11-11T19:09:00.965Z,4.30
2017-11-11T19:11:27.246Z,4.30
2017-11-11T19:13:53.438Z,4.30
2017-11-11T19:16:19.664Z,4.30
2017-11-11T19:18:45.869Z,4.40
2017-11-11T19:21:12.134Z,4.40
2017-11-11T19:23:38.391Z,4.40
2017-11-11T19:26:04.598Z,4.40
2017-11-11T19:28:30.929Z,4.40
2017-11-11T19:30:57.162Z,4.40
2017-11-11T19:33:23.425Z,4.40
2017-11-11T19:35:50.307Z,4.40
2017-11-11T19:38:16.462Z,4.40
2017-11-11T19:40:42.713Z,4.40
2017-11-11T19:43:09.639Z,4.30
2017-11-11T19:45:36.612Z,4.30
2017-11-11T19:48:02.826Z,4.30
2017-11-11T19:50:30.425Z,4.40
2017-11-11T19:52:57.257Z,4.40
2017-11-11T19:55:23.502Z,4.40
2017-11-11T19:57:49.810Z,4.40
2017-11-11T20:00:16.074Z,4.30
2017-11-11T20:02:42.348Z,4.30
2017-11-11T20:05:08.624Z,4.30
2017-11-11T20:07:34.889Z,4.30
2017-11-11T20:10:01.843Z,4.30
2017-11-11T20:12:28.174Z,4.30
2017-11-11T20:14:54.397Z,4.20
2017-11-11T20:17:22.234Z,4.20
2017-11-11T20:19:48.468Z,4.20
2017-11-11T20:22:14.668Z,4.20
2017-11-11T20:24:40.921Z,4.20
2017-11-11T20:27:07.154Z,4.20
2017-11-11T20:29:34.186Z,4.20
2017-11-11T20:32:00.398Z,4.20
2017-11-11T20:34:27.176Z,4.20
2017-11-11T20:36:54.101Z,4.20
2017-11-11T20:39:20.253Z,4.20
2017-11-11T20:41:46.508Z,4.30
2017-11-11T20:44:12.788Z,4.30
2017-11-11T20:46:39.831Z,4.40
2017-11-11T20:49:06.063Z,4.30
2017-11-11T20:51:33.344Z,4.30
2017-11-11T20:53:59.677Z,4.30
2017-11-11T20:56:26.140Z,4.30
2017-11-11T20:58:52.311Z,4.30
2017-11-11T21:01:19.254Z,4.30
2017-11-11T21:03:46.231Z,4.30
2017-11-11T21:06:12.564Z,4.30
2017-11-11T21:08:38.846Z,4.20
2017-11-11T21:11:05.873Z,4.10
2017-11-11T21:13:32.080Z,4.10
2017-11-11T21:15:58.338Z,4.10
2017-11-11T21:18:25.256Z,4.00
2017-11-11T21:20:51.659Z,4.00
2017-11-11T21:23:17.855Z,4.00
2017-11-11T21:25:44.808Z,3.90
2017-11-11T21:28:11.027Z,3.90
2017-11-11T21:30:38.203Z,3.70
2017-11-11T21:33:04.386Z,3.70
2017-11-11T21:35:31.356Z,3.70
2017-11-11T21:37:57.668Z,3.70
2017-11-11T21:40:24.651Z,3.60
2017-11-11T21:42:51.069Z,3.60
2017-11-11T21:45:17.269Z,3.60
2017-11-11T21:47:43.465Z,3.50
2017-11-11T21:50:09.622Z,3.50
2017-11-11T21:52:36.852Z,3.50
2017-11-11T21:55:03.089Z,3.50
2017-11-11T21:57:30.059Z,3.50
2017-11-11T21:59:56.225Z,3.50
2017-11-11T22:02:22.595Z,3.40
2017-11-11T22:04:49.525Z,3.30
2017-11-11T22:07:15.789Z,3.30
2017-11-11T22:09:41.944Z,3.20
2017-11-11T22:12:08.262Z,3.20
2017-11-11T22:14:34.416Z,3.10
2017-11-11T22:17:00.703Z,3.00
2017-11-11T22:19:27.024Z,2.80
2017-11-11T22:21:53.218Z,2.70
2017-11-11T22:24:20.186Z,2.50
2017-11-11T22:26:46.378Z,2.50
2017-11-11T22:29:12.596Z,2.50
2017-11-11T22:31:38.782Z,2.40
2017-11-11T22:34:05.123Z,2.30
2017-11-11T22:36:31.320Z,2.20
2017-11-11T22:38:57.498Z,2.10
2017-11-11T22:41:23.922Z,2.00
2017-11-11T22:43:50.053Z,2.00
2017-11-11T22:46:16.256Z,1.90
2017-11-11T22:48:42.502Z,1.90
2017-11-11T22:51:08.727Z,1.80
2017-11-11T22:53:34.921Z,1.70
2017-11-11T22:56:01.173Z,1.70
2017-11-11T22:58:27.434Z,1.60
2017-11-11T23:00:53.620Z,1.50
2017-11-11T23:03:19.819Z,1.50
2017-11-11T23:05:45.987Z,1.40
2017-11-11T23:08:12.272Z,1.30
2017-11-11T23:10:38.509Z,1.20
2017-11-11T23:13:04.900Z,1.10
2017-11-11T23:15:31.218Z,1.00
2017-11-11T23:17:57.396Z,1.00
2017-11-11T23:20:24.297Z,0.90
2017-11-11T23:22:50.667Z,0.90
2017-11-11T23:25:16.971Z,0.90
2017-11-11T23:27:44.019Z,0.80
2017-11-11T23:30:11.149Z,0.80
2017-11-11T23:32:37.342Z,0.80
2017-11-11T23:35:03.528Z,0.80
2017-11-11T23:37:29.882Z,0.80
2017-11-11T23:39:56.210Z,0.70
2017-11-11T23:42:22.624Z,0.70
2017-11-11T23:44:48.924Z,0.70
2017-11-11T23:47:15.910Z,0.70
2017-11-11T23:49:42.074Z,0.70
2017-11-11T23:52:08.250Z,0.70
2017-11-11T23:54:34.628Z,0.80
2017-11-11T23:57:00.848Z,0.80
2017-11-11T23:59:27.161Z,0.90
